ADDS METAR Data INFO
IDs: Format: Raw Decoded Include TAF

Data at: 1533 UTC 25 Feb 2018

KBTL 251453Z 25020G25KT 10SM OVC026 02/M04 A2982 RMK AO2 PRESRR SLP096 T00221039 51056 $
KBTL 251353Z 25023G30KT 10SM OVC021 02/M02 A2974 RMK AO2 SLP067 T00221022 $
KBTL 251253Z 25023G30KT 10SM OVC021 02/M02 A2974 RMK AO2 PRESRR SLP067 T00221022 $
KBTL 251153Z 25020G30KT 10SM OVC016 03/00 A2965 RMK AO2 PRESFR SLP035 60003 70003 T00280000 51055 $
KBTL 251141Z 26020G30KT 10SM SCT015 OVC018 04/01 A2967 RMK AO2 T00390011 $
KBTL 251100Z 26020G30KT 10SM OVC016 M16/M17 A2962 RMK AO2 T11561172 $
KBTL 251053Z A2962 RMK AO2 SLPNO $
KBTL 250953Z AUTO A2954 RMK AO2 PK WND 26042/0933 PRESRR SLPNO PWINO FZRANO $
KBTL 250938Z AUTO 10SM 09/06 A2951 RMK AO2 PK WND 26042/0933 T00890061 $
KBTL 250907Z AUTO 24020G30KT 10SM SCT006 OVC011 11/09 A2946 RMK AO2 PK WND 24030/0901 T01060089
KBTL 250853Z AUTO 22020G30KT 7SM OVC006 10/09 A2946 RMK AO2 PK WND 23030/0852 RAE24 CIG 005V009 SLP978 P0001 60003 T01000089 55014
KBTL 250805Z AUTO 17015KT 4SM -RA BR OVC005 08/07 A2946 RMK AO2 CIG 003V008 P0000 T00780072
KBTL 250753Z AUTO 16013G18KT 2SM -RA BR OVC003 07/07 A2946 RMK AO2 RAE10B27 SLP978 P0002 T00670067
KBTL 250744Z AUTO 15009KT 2SM -RA BR OVC002 07/06 A2946 RMK AO2 RAE10B27 P0001 T00670061
KBTL 250737Z AUTO 15010KT 1 3/4SM -RA BR OVC002 07/06 A2947 RMK AO2 RAE10B27 P0001 T00670061
KBTL 250708Z AUTO 15012KT 2 1/2SM -RA BR OVC002 06/05 A2949 RMK AO2 P0000 T00560050
KBTL 250700Z AUTO 13011G19KT 1 3/4SM -RA BR OVC002 06/05 A2949 RMK AO2 P0000 T00560050
KBTL 250653Z AUTO 13013G19KT 2SM -RA BR OVC002 05/04 A2950 RMK AO2 RAB52 SLP994 P0000 T00500044
KBTL 250553Z AUTO 14012KT 7SM OVC004 05/04 A2957 RMK AO2 SLP017 T00500039 10050 20033 56062
KBTL 250453Z AUTO 12013G21KT 10SM OVC007 04/03 A2961 RMK AO2 SLP034 T00440028 400560011
KBTL 250353Z AUTO 11009G18KT 10SM OVC008 03/02 A2967 RMK AO2 SLP055 T00330017
KBTL 250342Z AUTO 11010G19KT 10SM OVC009 03/01 A2969 RMK AO2 T00330011
KBTL 250253Z 12013G24KT 10SM OVC012 03/01 A2976 RMK AO2 SLP084 T00330006 58062
KBTL 250153Z 11012KT 10SM OVC010 03/01 A2983 RMK AO2 SLP109 T00330011
KBTL 250053Z 10011G20KT 10SM OVC011 03/01 A2989 RMK AO2 SLP129 T00330011
KBTL 250004Z 11014G21KT 10SM OVC014 04/01 A2994 RMK AO2 T00390006
KBTL 242353Z 11012KT 10SM OVC015 04/01 A2994 RMK AO2 SLP148 T00390006 10056 20039 58022
KBTL 242253Z 11012KT 10SM OVC018 05/01 A2996 RMK AO2 SLP153 T00500006
KBTL 242153Z 10011KT 10SM OVC019 06/01 A2999 RMK AO2 SLP163 T00560006
KBTL 242053Z 09011KT 10SM OVC018 05/01 A3001 RMK AO2 SLP169 T00500006 56036
KBTL 241953Z 10011G17KT 10SM OVC017 05/01 A3003 RMK AO2 PRESFR SLP175 T00500006
KBTL 241923Z 11011KT 10SM OVC017 05/01 A3006 RMK AO2 T00500006
KBTL 241853Z 10010KT 10SM OVC017 05/01 A3007 RMK AO2 SLP189 T00500006
KBTL 241753Z 08011KT 10SM OVC016 04/01 A3012 RMK AO2 SLP207 T00440006 10044 20011 58024
KBTL 241653Z 10009KT 10SM OVC016 03/M01 A3017 RMK AO2 SLP225 T00331006
KBTL 241553Z 11010KT 10SM OVC016 03/M01 A3018 RMK AO2 SLP230 T00281011
KBTL 241453Z 09007KT 10SM OVC015 02/M02 A3019 RMK AO2 SLP232 T00221017 56005
KBTL 241437Z 08007KT 10SM BKN015 OVC110 02/M02 A3019 RMK AO2 T00171017
KBTL 241430Z 08007KT 10SM SCT014 OVC100 02/M02 A3019 RMK AO2 T00171017
KBTL 241408Z 08007KT 10SM OVC014 02/M02 A3019 RMK AO2 T00171017
KBTL 241353Z 06009KT 10SM OVC015 02/M02 A3020 RMK AO2 SLP234 T00171017
KBTL 241253Z 06007KT 10SM OVC015 01/M02 A3020 RMK AO2 SLP234 T00111017
KBTL 241153Z 05006KT 10SM OVC016 02/M02 A3021 RMK AO2 SLP238 70003 T00171017 10022 20017 58006
KBTL 241053Z 05003KT 10SM OVC015 02/M02 A3022 RMK AO2 SLP241 T00171017
KBTL 240953Z AUTO 04005KT 10SM OVC016 02/M02 A3022 RMK AO2 SLP242 T00171017
KBTL 240853Z AUTO 02005KT 10SM OVC016 02/M02 A3023 RMK AO2 SLP243 T00171017 58004
KBTL 240753Z AUTO 35005KT 10SM OVC016 02/M02 A3023 RMK AO2 SLP244 T00171017
KBTL 240653Z AUTO 33007KT 10SM OVC015 02/M01 A3024 RMK AO2 SLP247 T00221006
KBTL 240648Z AUTO 34007KT 10SM OVC015 02/M01 A3024 RMK AO2
KBTL 240553Z AUTO 29005KT 10SM OVC014 02/00 A3025 RMK AO2 SLP252 T00220000 10039 20022 53008
KBTL 240453Z AUTO 29008KT 10SM OVC013 02/00 A3024 RMK AO2 SLP246 T00220000 400720017
KBTL 240353Z AUTO 30006KT 10SM OVC012 02/00 A3024 RMK AO2 SLP247 T00220000